createdAt,value
2022-09-28T00:00:25.596Z,64.6
2022-09-28T00:01:27.499Z,64.6
2022-09-28T00:02:29.481Z,64.6
2022-09-28T00:03:30.291Z,64.5
2022-09-28T00:04:31.274Z,64.5
2022-09-28T00:05:32.210Z,64.5
2022-09-28T00:06:33.339Z,64.5
2022-09-28T00:07:35.308Z,64.5
2022-09-28T00:08:37.220Z,64.5
2022-09-28T00:09:38.231Z,64.6
2022-09-28T00:10:39.290Z,64.6
2022-09-28T00:11:40.230Z,64.6
2022-09-28T00:12:41.216Z,64.4
2022-09-28T00:13:42.358Z,64.2
2022-09-28T00:14:44.390Z,64.2
2022-09-28T00:15:46.334Z,64.1
2022-09-28T00:16:47.349Z,64.1
2022-09-28T00:17:48.251Z,64
2022-09-28T00:18:49.431Z,64.1
2022-09-28T00:19:51.438Z,64.3
2022-09-28T00:20:53.230Z,64.2
2022-09-28T00:21:54.150Z,64.2
2022-09-28T00:22:55.190Z,64.1
2022-09-28T00:23:56.353Z,63.9
2022-09-28T00:24:57.170Z,63.9
2022-09-28T00:25:58.240Z,64
2022-09-28T00:26:59.330Z,63.4
2022-09-28T00:28:00.251Z,63.7
2022-09-28T00:29:03.606Z,63.7
2022-09-28T00:30:04.413Z,63.8
2022-09-28T00:31:06.449Z,63.6
2022-09-28T00:32:08.372Z,63.5
2022-09-28T00:33:10.451Z,63.4
2022-09-28T00:34:12.295Z,63.3
2022-09-28T00:35:13.251Z,63.3
2022-09-28T00:36:14.251Z,63.5
2022-09-28T00:37:15.237Z,63.7
2022-09-28T00:38:16.270Z,63.9
2022-09-28T00:39:17.354Z,63.9
2022-09-28T00:40:18.251Z,64.2
2022-09-28T00:41:19.450Z,64.3
2022-09-28T00:42:21.391Z,64.5
2022-09-28T00:43:23.315Z,64.5
2022-09-28T00:44:27.270Z,64.4
2022-09-28T00:45:28.252Z,64.3
2022-09-28T00:46:29.257Z,64.1
2022-09-28T00:47:30.330Z,63.9
2022-09-28T00:48:31.201Z,63.7
2022-09-28T00:49:32.170Z,63.7
2022-09-28T00:50:33.216Z,63.5
2022-09-28T00:51:34.490Z,63.3
2022-09-28T00:52:36.391Z,63.1
2022-09-28T00:53:38.510Z,63
2022-09-28T00:54:40.411Z,63
2022-09-28T00:55:42.272Z,62.9
2022-09-28T00:56:43.250Z,62.9
2022-09-28T00:57:44.331Z,62.8
2022-09-28T00:58:45.231Z,62.8
2022-09-28T00:59:46.231Z,62.5
2022-09-28T01:04:08.002Z,62.3
2022-09-28T01:05:09.258Z,62.2
2022-09-28T01:06:10.317Z,62.1
2022-09-28T01:07:11.334Z,62
2022-09-28T01:08:12.314Z,62
2022-09-28T01:09:13.377Z,61.6
2022-09-28T01:10:14.300Z,61.9
2022-09-28T01:11:15.380Z,62
2022-09-28T01:12:17.215Z,62
2022-09-28T01:13:18.257Z,62.2
2022-09-28T01:14:19.243Z,62.3
2022-09-28T01:15:20.275Z,62.4
2022-09-28T01:16:21.436Z,62.6
2022-09-28T01:17:23.295Z,62.9
2022-09-28T01:18:24.274Z,62.8
2022-09-28T01:19:25.299Z,63
2022-09-28T01:20:26.215Z,63
2022-09-28T01:21:27.254Z,62.9
2022-09-28T01:22:28.234Z,62.7
2022-09-28T01:23:29.287Z,63.4
2022-09-28T01:24:30.235Z,63.6
2022-09-28T01:25:31.200Z,63.9
2022-09-28T01:26:32.235Z,64
2022-09-28T01:27:33.215Z,64.2
2022-09-28T01:28:34.318Z,64.3
2022-09-28T01:29:35.214Z,64.7
2022-09-28T01:30:36.414Z,64.9
2022-09-28T01:31:38.343Z,65
2022-09-28T01:32:39.354Z,65
2022-09-28T01:33:40.194Z,64.8
2022-09-28T01:34:41.187Z,64.7
2022-09-28T01:35:42.214Z,64.8
2022-09-28T01:36:43.396Z,64.8
2022-09-28T01:37:45.414Z,64.8
2022-09-28T01:38:47.475Z,64.9
2022-09-28T01:39:49.375Z,65
2022-09-28T01:40:51.499Z,65.1
2022-09-28T01:41:53.280Z,65.1
2022-09-28T01:42:54.434Z,65
2022-09-28T01:43:56.424Z,64.9
2022-09-28T01:44:58.258Z,64.8
2022-09-28T01:45:59.419Z,64.7
2022-09-28T01:47:00.234Z,64.7
2022-09-28T01:48:01.288Z,64.6
2022-09-28T01:49:02.274Z,64.3
2022-09-28T01:50:03.322Z,64.2
2022-09-28T01:51:04.279Z,64.1
2022-09-28T01:52:05.309Z,63.9
2022-09-28T01:53:06.279Z,63.7
2022-09-28T01:54:07.282Z,63.1
2022-09-28T01:55:08.235Z,63.4
2022-09-28T01:56:09.257Z,63.3
2022-09-28T01:57:10.274Z,63.3
2022-09-28T01:58:11.296Z,63
2022-09-28T01:59:12.360Z,62.9
2022-09-28T02:00:13.474Z,62.7
2022-09-28T02:01:15.398Z,62.5
2022-09-28T02:02:16.380Z,62.3
2022-09-28T02:03:17.354Z,62.2
2022-09-28T02:04:18.298Z,62.2
2022-09-28T02:05:19.297Z,62.3
2022-09-28T02:06:20.267Z,62.2
2022-09-28T02:07:21.314Z,61.9
2022-09-28T02:08:22.150Z,61.9
2022-09-28T02:09:23.274Z,61.7
2022-09-28T02:10:24.366Z,61.7
2022-09-28T02:11:25.222Z,61.8
2022-09-28T02:12:26.234Z,61.7
2022-09-28T02:13:27.354Z,61.8
2022-09-28T02:14:28.334Z,62
2022-09-28T02:15:29.374Z,62.1
2022-09-28T02:16:30.328Z,62
2022-09-28T02:17:31.336Z,61.8
2022-09-28T02:18:32.295Z,61.8
2022-09-28T02:19:33.314Z,61.6
2022-09-28T02:20:34.381Z,61.6
2022-09-28T02:21:35.254Z,61.7
2022-09-28T02:22:36.334Z,61.6
2022-09-28T02:23:37.354Z,61.8
2022-09-28T02:24:38.336Z,61.8
2022-09-28T02:25:39.257Z,62
2022-09-28T02:26:40.282Z,62.4
2022-09-28T02:27:41.336Z,62.6
2022-09-28T02:28:42.334Z,62.8
2022-09-28T02:29:43.315Z,62.9
2022-09-28T02:30:44.374Z,63
2022-09-28T02:31:45.448Z,63
2022-09-28T02:32:46.257Z,63.1
2022-09-28T02:33:47.414Z,62.8
2022-09-28T02:34:49.275Z,63.2
2022-09-28T02:35:50.339Z,63.2
2022-09-28T02:36:51.274Z,63.3
2022-09-28T02:37:52.320Z,63.2
2022-09-28T02:38:53.378Z,63.2
2022-09-28T02:39:54.334Z,63.1
2022-09-28T02:40:55.353Z,63.2
2022-09-28T02:41:56.315Z,63.3
2022-09-28T02:42:57.355Z,63.2
2022-09-28T02:43:58.483Z,63.2
2022-09-28T02:45:00.294Z,63.2
2022-09-28T02:46:01.407Z,63.1
2022-09-28T02:47:02.314Z,63
2022-09-28T02:48:03.267Z,63
2022-09-28T02:49:20.691Z,62.9
2022-09-28T02:50:06.654Z,62.9
2022-09-28T02:51:08.342Z,62.9
2022-09-28T02:52:09.294Z,62.8
2022-09-28T02:53:10.322Z,63
2022-09-28T02:54:13.440Z,63.3
2022-09-28T02:55:12.314Z,63.4
2022-09-28T02:56:13.396Z,63.5
2022-09-28T02:57:14.474Z,63.4
2022-09-28T02:58:16.314Z,63.2
2022-09-28T02:59:17.349Z,63
2022-09-28T03:00:18.355Z,62.9
2022-09-28T03:01:19.557Z,62.7
2022-09-28T03:02:21.520Z,62.6
2022-09-28T03:03:23.555Z,62.5
2022-09-28T03:04:25.295Z,62.5
2022-09-28T03:05:26.294Z,62.4
2022-09-28T03:06:27.362Z,62.4
2022-09-28T03:07:28.314Z,62.2
2022-09-28T03:08:29.318Z,62.2
2022-09-28T03:09:30.335Z,62.1
2022-09-28T03:10:31.314Z,62.2
2022-09-28T03:11:32.318Z,62.1
2022-09-28T03:12:33.394Z,61.5
2022-09-28T03:13:34.537Z,61.9
2022-09-28T03:14:36.274Z,61.8
2022-09-28T03:15:37.355Z,62.1
2022-09-28T03:16:38.487Z,62.3
2022-09-28T03:17:40.314Z,62.3
2022-09-28T03:18:41.354Z,62.5
2022-09-28T03:19:42.375Z,62.5
2022-09-28T03:20:43.315Z,62.9
2022-09-28T03:21:44.407Z,62.9
2022-09-28T03:22:55.947Z,62.8
2022-09-28T03:23:46.335Z,62.8
2022-09-28T03:24:47.316Z,62.7
2022-09-28T03:25:48.359Z,62.4
2022-09-28T03:26:49.315Z,62.3
2022-09-28T03:27:50.314Z,62
2022-09-28T03:28:51.458Z,61.8
2022-09-28T03:29:53.329Z,61.6
2022-09-28T03:30:54.375Z,61.6
2022-09-28T03:31:55.451Z,61.4
2022-09-28T03:32:56.383Z,61.2
2022-09-28T03:33:57.355Z,60.8
2022-09-28T03:34:58.274Z,60.5
2022-09-28T03:35:59.355Z,60.5
2022-09-28T03:37:00.360Z,60.5
2022-09-28T03:38:01.334Z,60.3
2022-09-28T03:39:02.355Z,60.2
2022-09-28T03:40:03.383Z,60.1
2022-09-28T03:41:04.511Z,60.1
2022-09-28T03:42:05.390Z,60
2022-09-28T03:43:06.337Z,60
2022-09-28T03:44:07.354Z,59.9
2022-09-28T03:45:08.374Z,60
2022-09-28T03:46:09.405Z,60
2022-09-28T03:47:10.336Z,60
2022-09-28T03:48:11.396Z,59.7
2022-09-28T03:49:12.335Z,59.4
2022-09-28T03:50:13.300Z,59.4
2022-09-28T03:51:14.435Z,59.5
2022-09-28T03:52:15.342Z,59.5
2022-09-28T03:53:16.355Z,59.4
2022-09-28T03:54:17.336Z,59.3
2022-09-28T03:55:18.336Z,59.3
2022-09-28T03:56:19.315Z,59.2
2022-09-28T03:57:20.315Z,59.3
2022-09-28T03:58:21.363Z,59.2
2022-09-28T03:59:22.356Z,59.2
2022-09-28T04:00:23.375Z,58.7
2022-09-28T04:01:24.461Z,59.1
2022-09-28T04:02:25.557Z,59.3
2022-09-28T04:03:27.395Z,59.7
2022-09-28T04:04:28.274Z,59.7
2022-09-28T04:05:29.323Z,59.8
2022-09-28T04:06:30.335Z,59.9
2022-09-28T04:07:31.440Z,60.1
2022-09-28T04:08:32.203Z,60.3
2022-09-28T04:09:33.274Z,60.4
2022-09-28T04:10:34.444Z,60.4
2022-09-28T04:11:53.103Z,60.3
2022-09-28T04:12:38.316Z,60.4
2022-09-28T04:13:39.433Z,60.3
2022-09-28T04:14:40.334Z,60.3
2022-09-28T04:15:41.295Z,60.2
2022-09-28T04:16:42.500Z,60
2022-09-28T04:17:43.494Z,59.8
2022-09-28T04:18:45.574Z,59.7
2022-09-28T04:19:47.574Z,59.5
2022-09-28T04:20:49.465Z,59.1
2022-09-28T04:21:51.743Z,58.6
2022-09-28T04:22:53.304Z,58.3
2022-09-28T04:23:54.434Z,58.2
2022-09-28T04:24:55.374Z,58.1
2022-09-28T04:25:56.395Z,58.1
2022-09-28T04:26:57.434Z,57.9
2022-09-28T04:27:58.275Z,57.9
2022-09-28T04:29:02.783Z,58
2022-09-28T04:30:01.374Z,58
2022-09-28T04:31:02.454Z,57.9
2022-09-28T04:32:03.530Z,57.8
2022-09-28T04:33:05.494Z,57.8
2022-09-28T04:34:07.557Z,58
2022-09-28T04:35:09.315Z,58.1
2022-09-28T04:36:10.317Z,58.1
2022-09-28T04:37:11.346Z,58
2022-09-28T04:38:12.416Z,57.7
2022-09-28T04:39:13.588Z,57.5
2022-09-28T04:40:15.453Z,57.3
2022-09-28T04:41:16.375Z,57
2022-09-28T04:42:17.483Z,57.1
2022-09-28T04:43:19.349Z,57.1
2022-09-28T04:44:20.554Z,57
2022-09-28T04:45:22.356Z,57.1
2022-09-28T04:46:23.390Z,57.2
2022-09-28T04:47:24.543Z,57.1
2022-09-28T04:48:26.563Z,56.9
2022-09-28T04:49:28.449Z,56.9
2022-09-28T04:50:29.323Z,57
2022-09-28T04:51:30.295Z,57.2
2022-09-28T04:52:31.458Z,57.4
2022-09-28T04:53:32.333Z,57.3
2022-09-28T04:54:33.534Z,57.5
2022-09-28T04:55:35.458Z,57.7
2022-09-28T04:56:37.548Z,57.9
2022-09-28T04:57:39.395Z,58
2022-09-28T04:58:40.454Z,58
2022-09-28T04:59:41.455Z,58.1
2022-09-28T05:00:42.439Z,58.2
2022-09-28T05:01:43.354Z,59
2022-09-28T05:02:44.538Z,59.2
2022-09-28T05:03:46.437Z,59
2022-09-28T05:04:47.495Z,58.9
2022-09-28T05:05:49.517Z,58.7
2022-09-28T05:06:51.902Z,58.6
2022-09-28T05:07:53.395Z,58.4
2022-09-28T05:08:54.480Z,58.1
2022-09-28T05:09:55.443Z,57.8
2022-09-28T05:10:56.399Z,57.4
2022-09-28T05:11:57.403Z,57.4
2022-09-28T05:12:58.414Z,57.4
2022-09-28T05:13:59.431Z,57.5
2022-09-28T05:15:00.424Z,57.3
2022-09-28T05:16:05.152Z,57
2022-09-28T05:17:02.498Z,56.7
2022-09-28T05:18:03.465Z,56.5
2022-09-28T05:19:04.434Z,56.5
2022-09-28T05:20:05.494Z,56.6
2022-09-28T05:21:06.435Z,56.7
2022-09-28T05:22:07.396Z,57.1
2022-09-28T05:23:08.374Z,57.3
2022-09-28T05:24:09.364Z,57.6
2022-09-28T05:25:10.375Z,57.8
2022-09-28T05:26:11.336Z,57.8
2022-09-28T05:27:12.358Z,57.7
2022-09-28T05:28:13.362Z,57.5
2022-09-28T05:29:14.548Z,57.6
2022-09-28T05:30:15.409Z,57.6
2022-09-28T05:31:16.494Z,57.4
2022-09-28T05:32:17.347Z,57.1
2022-09-28T05:33:18.476Z,57.2
2022-09-28T05:34:19.402Z,57.3
2022-09-28T05:35:20.362Z,57.5
2022-09-28T05:36:21.413Z,57.4
2022-09-28T05:37:22.335Z,57.6
2022-09-28T05:38:23.347Z,57.7
2022-09-28T05:39:24.500Z,57.7
2022-09-28T05:40:25.641Z,57.6
2022-09-28T05:41:27.334Z,57.6
2022-09-28T05:42:28.394Z,57.5
2022-09-28T05:43:29.375Z,57.4
2022-09-28T05:44:30.415Z,57.4
2022-09-28T05:45:31.484Z,57.2
2022-09-28T05:46:32.376Z,57
2022-09-28T05:47:33.495Z,56.4
2022-09-28T05:48:34.436Z,56.2
2022-09-28T05:49:35.437Z,56.5
2022-09-28T05:50:36.455Z,57
2022-09-28T05:51:37.377Z,57
2022-09-28T05:52:38.374Z,57.3
2022-09-28T05:53:39.441Z,56.8
2022-09-28T05:54:40.438Z,56.3
2022-09-28T05:55:41.494Z,56.1
2022-09-28T05:56:42.462Z,55.8
2022-09-28T05:57:43.494Z,56.1
2022-09-28T05:58:44.535Z,55.8
2022-09-28T05:59:46.374Z,55.7
2022-09-28T06:00:47.530Z,55.9
2022-09-28T06:01:48.416Z,56.1
2022-09-28T06:02:49.418Z,56.1
2022-09-28T06:03:50.394Z,55.7
2022-09-28T06:04:51.449Z,55.4
2022-09-28T06:05:52.895Z,55.5
2022-09-28T06:06:54.475Z,55.4
2022-09-28T06:07:55.357Z,55.5
2022-09-28T06:08:56.394Z,55.7
2022-09-28T06:09:57.479Z,55.7
2022-09-28T06:10:58.447Z,55.7
2022-09-28T06:11:59.349Z,55.7
2022-09-28T06:13:00.508Z,55.7
2022-09-28T06:14:01.494Z,55.8
2022-09-28T06:15:02.514Z,55.9
2022-09-28T06:16:03.474Z,55.6
2022-09-28T06:17:04.485Z,55.4
2022-09-28T06:18:05.415Z,55.6
2022-09-28T06:19:06.404Z,56
2022-09-28T06:20:07.402Z,56.2
2022-09-28T06:21:08.485Z,56.4
2022-09-28T06:22:09.427Z,56.6
2022-09-28T06:23:10.435Z,56.4
2022-09-28T06:24:11.462Z,56.8
2022-09-28T06:25:12.680Z,56.4
2022-09-28T06:26:14.468Z,56.3
2022-09-28T06:27:15.422Z,56.5
2022-09-28T06:28:16.376Z,56.9
2022-09-28T06:29:19.566Z,57.5
2022-09-28T06:30:18.495Z,57.7
2022-09-28T06:31:19.416Z,57.7
2022-09-28T06:32:20.595Z,57.9
2022-09-28T06:33:22.489Z,58.3
2022-09-28T06:34:23.483Z,58.6
2022-09-28T06:35:24.394Z,58.8
2022-09-28T06:36:25.454Z,58.9
2022-09-28T06:37:26.514Z,58.5
2022-09-28T06:38:27.462Z,58.9
2022-09-28T06:39:28.474Z,58.5
2022-09-28T06:40:29.629Z,58.8
2022-09-28T06:41:30.554Z,58.8
2022-09-28T06:42:32.415Z,59
2022-09-28T06:43:34.453Z,58.9
2022-09-28T06:44:35.635Z,59.1
2022-09-28T06:45:37.415Z,59.2
2022-09-28T06:46:38.626Z,59.1
2022-09-28T06:47:40.495Z,59.1
2022-09-28T06:48:41.635Z,59.1
2022-09-28T06:49:43.422Z,59.1
2022-09-28T06:50:44.495Z,58.5
2022-09-28T06:51:45.452Z,58.5
2022-09-28T06:52:46.430Z,58.5
2022-09-28T06:53:47.420Z,58.6
2022-09-28T06:54:48.440Z,57.7
2022-09-28T06:55:49.580Z,57.6
2022-09-28T06:56:51.434Z,57.4
2022-09-28T06:57:52.934Z,57.1
2022-09-28T06:58:54.483Z,56.1
2022-09-28T06:59:55.414Z,55.4
2022-09-28T07:00:56.501Z,55.7
2022-09-28T07:01:57.582Z,56
2022-09-28T07:02:58.548Z,56
2022-09-28T07:04:00.496Z,55.8
2022-09-28T07:05:01.415Z,55.4
2022-09-28T07:06:02.496Z,55.2
2022-09-28T07:07:03.550Z,55.2
2022-09-28T07:08:05.435Z,55
2022-09-28T07:09:20.795Z,54.4
2022-09-28T07:10:07.455Z,54.9
2022-09-28T07:11:08.558Z,54.8
2022-09-28T07:12:09.514Z,53.4
2022-09-28T07:13:22.351Z,53.7
2022-09-28T07:14:18.601Z,54.3
2022-09-28T07:15:12.515Z,54.5
2022-09-28T07:16:13.897Z,55.3
2022-09-28T07:17:15.703Z,55.4
2022-09-28T07:18:16.491Z,54.7
2022-09-28T07:19:17.494Z,54.6
2022-09-28T07:20:19.522Z,53.6
2022-09-28T07:21:28.504Z,54.5
2022-09-28T07:22:30.773Z,53.8
2022-09-28T07:23:23.495Z,52.3
2022-09-28T07:24:24.475Z,51.4
2022-09-28T07:25:25.414Z,52.5
2022-09-28T07:26:26.539Z,52.9
2022-09-28T07:27:28.990Z,52.5
2022-09-28T07:28:28.463Z,53.2
2022-09-28T07:29:29.535Z,52.7
2022-09-28T07:30:30.576Z,52.6
2022-09-28T07:31:31.573Z,53.2
2022-09-28T07:32:33.485Z,52.4
2022-09-28T07:33:34.555Z,52.9
2022-09-28T07:34:35.495Z,53.3
2022-09-28T07:35:36.619Z,53.3
2022-09-28T07:36:38.535Z,53.2
2022-09-28T07:37:39.615Z,53
2022-09-28T07:38:41.516Z,53
2022-09-28T07:39:42.576Z,53.5
2022-09-28T07:40:48.144Z,54
2022-09-28T07:41:46.510Z,52.9
2022-09-28T07:42:47.535Z,52.8
2022-09-28T07:43:48.624Z,52.5
2022-09-28T07:44:50.595Z,53.2
2022-09-28T07:45:52.812Z,53.5
2022-09-28T07:46:54.543Z,53.6
2022-09-28T07:47:55.475Z,53.3
2022-09-28T07:48:56.529Z,52.5
2022-09-28T07:49:57.485Z,51.6
2022-09-28T07:50:58.464Z,51.8
2022-09-28T07:51:59.475Z,51.7
2022-09-28T07:53:00.505Z,52.1
2022-09-28T07:54:01.500Z,51.4
2022-09-28T07:55:06.762Z,52
2022-09-28T07:56:03.583Z,52.1
2022-09-28T07:57:05.549Z,51.8
2022-09-28T07:58:06.716Z,51.5
2022-09-28T07:59:08.737Z,52.3
2022-09-28T08:00:10.689Z,52.3
2022-09-28T08:01:12.834Z,51.4
2022-09-28T08:02:14.813Z,51.8
2022-09-28T08:03:16.454Z,51.7
2022-09-28T08:04:17.486Z,51.6
2022-09-28T08:05:18.495Z,51.4
2022-09-28T08:06:19.456Z,51.9
2022-09-28T08:07:23.787Z,51.1
2022-09-28T08:08:21.635Z,51.3
2022-09-28T08:09:23.754Z,51.5
2022-09-28T08:10:25.775Z,51.2
2022-09-28T08:11:27.776Z,51.6
2022-09-28T08:12:29.661Z,51.4
2022-09-28T08:13:31.724Z,51.7
2022-09-28T08:14:33.634Z,51.9
2022-09-28T08:15:35.479Z,52.6
2022-09-28T08:17:38.494Z,51.7
2022-09-28T08:18:39.594Z,52
2022-09-28T08:19:41.595Z,51.5
2022-09-28T08:20:45.981Z,51.6
2022-09-28T08:21:45.456Z,52.2
2022-09-28T08:22:46.540Z,52.8
2022-09-28T08:23:47.801Z,52.8
2022-09-28T08:24:49.574Z,52.4
2022-09-28T08:25:50.548Z,51.7
2022-09-28T08:26:51.734Z,52
2022-09-28T08:27:53.728Z,51.6
2022-09-28T08:28:55.634Z,52.3
2022-09-28T08:29:57.525Z,51.7
2022-09-28T08:30:58.623Z,49.6
2022-09-28T08:32:01.634Z,50.2
2022-09-28T08:33:01.514Z,50.3
2022-09-28T08:34:02.575Z,48.9
2022-09-28T08:35:03.744Z,48.5
2022-09-28T08:36:05.604Z,48.2
2022-09-28T08:37:07.738Z,48.3
2022-09-28T08:38:09.487Z,48.8
2022-09-28T08:39:10.635Z,48.6
2022-09-28T08:40:12.557Z,48.6
2022-09-28T08:41:13.555Z,48.9
2022-09-28T08:42:14.616Z,49.1
2022-09-28T08:43:16.547Z,49.2
2022-09-28T08:44:17.632Z,49.1
2022-09-28T08:45:19.834Z,49.3
2022-09-28T08:46:22.717Z,49.6
2022-09-28T08:47:21.461Z,50.6
2022-09-28T08:48:22.467Z,50.5
2022-09-28T08:49:25.892Z,49.6
2022-09-28T08:50:25.554Z,48.4
2022-09-28T08:51:26.515Z,48.2
2022-09-28T08:52:27.529Z,48.1
2022-09-28T08:53:28.588Z,48.2
2022-09-28T08:54:29.642Z,46.8
2022-09-28T08:55:31.693Z,46.6
2022-09-28T08:56:33.570Z,46.4
2022-09-28T08:57:34.603Z,46.7
2022-09-28T08:58:36.725Z,47.7
2022-09-28T08:59:38.575Z,47.1
2022-09-28T09:00:39.575Z,46.2
2022-09-28T09:01:40.636Z,46.2
2022-09-28T09:02:41.773Z,46.1
2022-09-28T09:03:43.571Z,45.4
2022-09-28T09:04:44.615Z,45.1
2022-09-28T09:05:46.614Z,45.5
2022-09-28T09:06:48.583Z,46.3
2022-09-28T09:07:49.558Z,45.5
2022-09-28T09:08:50.595Z,46.5
2022-09-28T09:09:51.515Z,48.1
2022-09-28T09:10:52.514Z,47.8
2022-09-28T09:11:53.709Z,47.3
2022-09-28T09:12:55.530Z,47.3
2022-09-28T09:13:56.529Z,48.6
2022-09-28T09:14:57.512Z,49
2022-09-28T09:15:58.600Z,48.6
2022-09-28T09:17:00.238Z,48.1
2022-09-28T09:18:01.623Z,48.9
2022-09-28T09:19:03.555Z,49
2022-09-28T09:20:04.616Z,48.3
2022-09-28T09:21:06.834Z,47.7
2022-09-28T09:22:08.658Z,47.6
2022-09-28T09:23:10.555Z,48.6
2022-09-28T09:24:11.554Z,49.1
2022-09-28T09:25:12.462Z,48.6
2022-09-28T09:26:15.520Z,46.4
2022-09-28T09:27:15.655Z,45.8
2022-09-28T09:28:17.459Z,45.5
2022-09-28T09:29:18.716Z,45.6
2022-09-28T09:30:20.688Z,45.7
2022-09-28T09:31:22.777Z,45.9
2022-09-28T09:32:22.514Z,45.6
2022-09-28T09:33:23.576Z,46.3
2022-09-28T09:34:24.535Z,45.6
2022-09-28T09:35:29.094Z,46.1
2022-09-28T09:36:26.854Z,46.6
2022-09-28T09:37:28.556Z,45.9
2022-09-28T09:38:29.575Z,46.2
2022-09-28T09:39:30.555Z,45.9
2022-09-28T09:40:31.664Z,45.2
2022-09-28T09:41:33.556Z,45.4
2022-09-28T09:42:34.785Z,45.5
2022-09-28T09:43:36.675Z,45.5
2022-09-28T09:44:38.788Z,45.2
2022-09-28T09:45:40.610Z,45.3
2022-09-28T09:46:41.527Z,45.2
2022-09-28T09:47:42.535Z,45.3
2022-09-28T09:48:43.535Z,45.7
2022-09-28T09:49:44.574Z,45.8
2022-09-28T09:50:45.594Z,45.5
2022-09-28T09:51:46.622Z,44.9
2022-09-28T09:52:47.555Z,45
2022-09-28T09:53:48.607Z,44.6
2022-09-28T09:54:49.675Z,44.5
2022-09-28T09:55:51.515Z,44.6
2022-09-28T09:56:52.535Z,44.4
2022-09-28T09:57:53.615Z,44.1
2022-09-28T09:58:54.855Z,44
2022-09-28T09:59:56.528Z,43.3
2022-09-28T10:00:57.566Z,42.7
2022-09-28T10:01:58.669Z,42.1
2022-09-28T10:02:59.625Z,41.8
2022-09-28T10:04:00.639Z,41.2
2022-09-28T10:05:01.604Z,40.7
2022-09-28T10:06:02.655Z,40.7
2022-09-28T10:07:04.598Z,41.2
2022-09-28T10:08:05.582Z,40.5
2022-09-28T10:09:06.758Z,40.1
2022-09-28T10:10:08.621Z,40.5
2022-09-28T10:11:10.399Z,40.9
2022-09-28T10:12:11.640Z,41.3
2022-09-28T10:13:13.599Z,41.4
2022-09-28T10:14:14.782Z,41.6
2022-09-28T10:15:16.574Z,41.7
2022-09-28T10:16:17.614Z,42.2
2022-09-28T10:17:18.554Z,42.4
2022-09-28T10:18:19.616Z,42.4
2022-09-28T10:19:20.475Z,43.2
2022-09-28T10:20:21.656Z,44.1
2022-09-28T10:21:23.730Z,44.8
2022-09-28T10:22:25.574Z,44.6
2022-09-28T10:23:26.554Z,43.9
2022-09-28T10:24:27.614Z,43
2022-09-28T10:25:28.567Z,42.4
2022-09-28T10:26:29.567Z,42.6
2022-09-28T10:27:30.495Z,42.3
2022-09-28T10:28:31.474Z,42.3
2022-09-28T10:29:32.525Z,43.1
2022-09-28T10:30:33.771Z,43.1
2022-09-28T10:31:35.621Z,42.9
2022-09-28T10:32:36.476Z,42.4
2022-09-28T10:33:37.534Z,42.5
2022-09-28T10:34:38.556Z,41.4
2022-09-28T10:35:39.502Z,42
2022-09-28T10:36:40.875Z,41.7
2022-09-28T10:37:42.520Z,42
2022-09-28T10:38:43.606Z,42.7
2022-09-28T10:39:44.613Z,42.9
2022-09-28T10:40:45.675Z,43.2
2022-09-28T10:41:46.675Z,44.1
2022-09-28T10:42:48.556Z,43.9
2022-09-28T10:43:50.640Z,43.8
2022-09-28T10:44:50.525Z,43.6
2022-09-28T10:45:51.603Z,44.8
2022-09-28T10:46:52.568Z,44.7
2022-09-28T10:47:53.757Z,44.9
2022-09-28T10:48:55.515Z,45
2022-09-28T10:49:56.654Z,45.1
2022-09-28T10:50:57.595Z,44.9
2022-09-28T10:51:58.595Z,45
2022-09-28T10:52:59.594Z,45.9
2022-09-28T10:54:00.642Z,46.8
2022-09-28T10:55:01.636Z,47.6
2022-09-28T10:56:02.615Z,48.5
2022-09-28T10:57:03.594Z,49.7
2022-09-28T10:58:04.542Z,50.5
2022-09-28T10:59:05.595Z,51.2
2022-09-28T11:00:06.893Z,51.9
2022-09-28T11:01:08.569Z,52.3
2022-09-28T11:02:09.686Z,53
2022-09-28T11:03:11.614Z,53.8
2022-09-28T11:04:12.566Z,54.5
2022-09-28T11:05:13.685Z,55.7
2022-09-28T11:06:15.575Z,57.1
2022-09-28T11:07:17.301Z,58.3
2022-09-28T11:08:17.511Z,59.4
2022-09-28T11:09:18.719Z,60.2
2022-09-28T11:10:22.410Z,60.2
2022-09-28T11:11:23.815Z,60.6
2022-09-28T11:12:25.515Z,60.6
2022-09-28T11:13:26.534Z,60.8
2022-09-28T11:14:27.647Z,60.9
2022-09-28T11:15:28.537Z,61
2022-09-28T11:16:29.645Z,61.2
2022-09-28T11:17:30.619Z,61.1
2022-09-28T11:18:31.668Z,61.8
2022-09-28T11:19:32.676Z,61.8
2022-09-28T11:20:33.735Z,62.3
2022-09-28T11:21:35.494Z,62.7
2022-09-28T11:22:36.603Z,62.5
2022-09-28T11:23:37.704Z,62.3
2022-09-28T11:24:39.531Z,61.9
2022-09-28T11:25:40.614Z,61.3
2022-09-28T11:26:41.517Z,61.1
2022-09-28T11:27:42.538Z,61.1
2022-09-28T11:28:43.536Z,60.9
2022-09-28T11:29:44.562Z,60.8
2022-09-28T11:30:45.666Z,60.3
2022-09-28T11:31:46.623Z,60.3
2022-09-28T11:32:47.696Z,59.6
2022-09-28T11:33:49.545Z,59.2
2022-09-28T11:35:00.799Z,58
2022-09-28T11:35:51.514Z,58.5
2022-09-28T11:36:52.575Z,59
2022-09-28T11:37:53.697Z,59
2022-09-28T11:38:55.595Z,58.7
2022-09-28T11:39:56.595Z,58.5
2022-09-28T11:40:57.693Z,58.9
2022-09-28T11:41:58.635Z,59.3
2022-09-28T11:42:59.579Z,59.9
2022-09-28T11:44:00.602Z,59.7
2022-09-28T11:45:01.614Z,59.3
2022-09-28T11:46:02.741Z,59.6
2022-09-28T11:47:03.618Z,59.9
2022-09-28T11:48:04.710Z,60.2
2022-09-28T11:49:06.623Z,60.5
2022-09-28T11:50:07.776Z,60.4
2022-09-28T11:51:09.557Z,60.3
2022-09-28T11:52:10.655Z,60.4
2022-09-28T11:53:11.694Z,60.5
2022-09-28T11:54:12.534Z,60.2
2022-09-28T11:55:13.735Z,60
2022-09-28T11:56:15.554Z,59.8
2022-09-28T11:57:16.594Z,59.9
2022-09-28T11:58:17.705Z,59.6
2022-09-28T11:59:19.514Z,59.3
2022-09-28T12:00:20.676Z,59.4
2022-09-28T12:01:21.688Z,59.5
2022-09-28T12:02:23.079Z,59.8
2022-09-28T12:03:24.715Z,59.8
2022-09-28T12:04:25.588Z,60.1
2022-09-28T12:05:26.635Z,59.3
2022-09-28T12:06:27.627Z,59.9
2022-09-28T12:07:28.595Z,60.1
2022-09-28T12:08:29.516Z,59.9
2022-09-28T12:09:30.819Z,60.1
2022-09-28T12:10:32.663Z,60.4
2022-09-28T12:11:33.655Z,60.8
2022-09-28T12:12:34.674Z,60.5
2022-09-28T12:13:35.575Z,59.8
2022-09-28T12:14:36.694Z,59.8
2022-09-28T12:15:52.984Z,60.1
2022-09-28T12:17:03.931Z,60.1
2022-09-28T12:17:40.742Z,59.3
2022-09-28T12:18:41.616Z,59.4
2022-09-28T12:19:42.655Z,59.2
2022-09-28T12:20:43.724Z,59.3
2022-09-28T12:21:45.683Z,59.7
2022-09-28T12:22:47.915Z,60
2022-09-28T12:23:49.855Z,59.8
2022-09-28T12:24:51.648Z,59.6
2022-09-28T12:25:52.775Z,59.7
2022-09-28T12:26:54.726Z,59.8
2022-09-28T12:27:56.639Z,59.9
2022-09-28T12:28:57.679Z,60.2
2022-09-28T12:29:59.958Z,60.4
2022-09-28T12:31:01.794Z,59.5
2022-09-28T12:32:03.876Z,59.8
2022-09-28T12:33:05.776Z,59.7
2022-09-28T12:34:07.877Z,59.4
2022-09-28T12:35:09.635Z,59.2
2022-09-28T12:36:10.554Z,59.5
2022-09-28T12:37:11.636Z,59.4
2022-09-28T12:38:12.788Z,59.5
2022-09-28T12:39:19.275Z,59.9
2022-09-28T12:40:16.661Z,60.1
2022-09-28T12:41:17.676Z,59.8
2022-09-28T12:42:19.826Z,59.6
2022-09-28T12:43:21.708Z,59.8
2022-09-28T12:44:23.874Z,59.7
2022-09-28T12:45:25.688Z,59.1
2022-09-28T12:46:27.884Z,58.1
2022-09-28T12:47:29.654Z,57.5
2022-09-28T12:48:31.839Z,57.3
2022-09-28T12:50:40.767Z,57.4
2022-09-28T12:51:38.003Z,57.9
2022-09-28T12:53:40.723Z,57.3
2022-09-28T12:54:42.855Z,57.4
2022-09-28T12:55:45.072Z,57.8
2022-09-28T12:56:46.595Z,57.9
2022-09-28T12:57:47.916Z,57.9
2022-09-28T12:58:49.782Z,57.2
2022-09-28T12:59:51.724Z,57.2
2022-09-28T13:00:53.843Z,57
2022-09-28T13:01:55.905Z,57.4
2022-09-28T13:02:57.978Z,57.9
2022-09-28T13:04:00.253Z,57.9
2022-09-28T13:05:01.835Z,58.3
2022-09-28T13:06:03.774Z,58
2022-09-28T13:07:05.829Z,57.3
2022-09-28T13:08:07.998Z,56.6
2022-09-28T13:09:09.615Z,57.1
2022-09-28T13:10:10.734Z,57.6
2022-09-28T13:11:11.635Z,58.2
2022-09-28T13:12:12.616Z,58.3
2022-09-28T13:13:13.634Z,58.3
2022-09-28T13:14:14.778Z,58.7
2022-09-28T13:15:16.694Z,58.7
2022-09-28T13:16:17.771Z,58.2
2022-09-28T13:17:18.655Z,58.2
2022-09-28T13:18:19.628Z,59.1
2022-09-28T13:19:20.980Z,59.8
2022-09-28T13:20:22.734Z,59.7
2022-09-28T13:21:24.726Z,59.8
2022-09-28T13:22:26.875Z,60
2022-09-28T13:23:28.938Z,59.8
2022-09-28T13:24:33.236Z,58.9
2022-09-28T13:25:32.628Z,60.1
2022-09-28T13:26:33.794Z,60.9
2022-09-28T13:27:35.676Z,60.8
2022-09-28T13:28:36.628Z,60.6
2022-09-28T13:30:38.959Z,59.8
2022-09-28T13:31:40.283Z,59.6
2022-09-28T13:32:41.688Z,58.3
2022-09-28T13:33:42.675Z,58.5
2022-09-28T13:34:43.634Z,59.3
2022-09-28T13:35:44.855Z,59.8
2022-09-28T13:36:48.225Z,60
2022-09-28T13:37:47.623Z,59.6
2022-09-28T13:38:48.649Z,59.2
2022-09-28T13:39:49.635Z,59.3
2022-09-28T13:40:50.648Z,59.3
2022-09-28T13:41:51.675Z,59.1
2022-09-28T13:42:52.708Z,59.3
2022-09-28T13:43:53.835Z,60
2022-09-28T13:44:55.875Z,60.7
2022-09-28T13:45:57.830Z,61.6
2022-09-28T13:46:59.957Z,61.8
2022-09-28T13:48:01.914Z,61.6